createdAt,value
2023-04-21T00:00:09.030Z,100980.81
2023-04-21T00:02:42.407Z,100975.63
2023-04-21T00:05:11.095Z,100973.88
2023-04-21T00:07:39.582Z,100974.75
2023-04-21T00:10:08.217Z,100967.84
2023-04-21T00:12:35.435Z,100970.41
2023-04-21T00:15:03.017Z,100962.63
2023-04-21T00:17:30.084Z,100958.31
2023-04-21T00:19:58.679Z,100960.03
2023-04-21T00:22:25.810Z,100959.16
2023-04-21T00:24:52.905Z,100954.84
2023-04-21T00:27:19.917Z,100960.03
2023-04-21T00:29:48.942Z,100962.59
2023-04-21T00:32:16.468Z,100958.28
2023-04-21T00:34:43.621Z,100952.22
2023-04-21T00:37:12.364Z,100948.78
2023-04-21T00:39:39.941Z,100953.94
2023-04-21T00:42:07.046Z,100954.81
2023-04-21T00:44:35.762Z,100942.75
2023-04-21T00:47:03.996Z,100953.06
2023-04-21T00:49:31.240Z,100944.44
2023-04-21T00:51:58.758Z,100942.69
2023-04-21T00:54:28.586Z,100953.00
2023-04-21T00:56:58.584Z,100948.72
2023-04-21T00:59:28.296Z,100947.84
2023-04-21T01:01:57.256Z,100942.66
2023-04-21T01:04:24.390Z,100951.28
2023-04-21T01:06:52.262Z,100946.97
2023-04-21T01:09:19.774Z,100944.34
2023-04-21T01:12:06.168Z,100948.66
2023-04-21T01:14:35.774Z,100944.31
2023-04-21T01:17:08.079Z,100952.06
2023-04-21T01:19:42.059Z,100953.75
2023-04-21T01:22:13.217Z,100945.16
2023-04-21T01:24:47.600Z,100943.41
2023-04-21T01:27:19.920Z,100946.84
2023-04-21T01:29:51.916Z,100961.44
2023-04-21T01:32:21.797Z,100952.84
2023-04-21T01:34:50.311Z,100945.94
2023-04-21T01:37:20.793Z,100951.09
2023-04-21T01:39:54.577Z,100953.69
2023-04-21T01:42:24.645Z,100957.06
2023-04-21T01:44:54.107Z,100959.63
2023-04-21T01:47:21.927Z,100952.75
2023-04-21T01:49:48.984Z,100956.19
2023-04-21T01:52:16.433Z,100960.47
2023-04-21T01:54:43.543Z,100954.44
2023-04-21T01:57:11.258Z,100952.69
2023-04-21T01:59:38.616Z,100952.69
2023-04-21T02:02:05.860Z,100957.84
2023-04-21T02:04:34.363Z,100952.63
2023-04-21T02:07:01.972Z,100945.72
2023-04-21T02:09:29.066Z,100956.06
2023-04-21T02:11:57.337Z,100956.06
2023-04-21T02:14:27.546Z,100954.31
2023-04-21T02:16:56.430Z,100954.28
2023-04-21T02:19:24.378Z,100957.72
2023-04-21T02:21:51.424Z,100952.56
2023-04-21T02:24:22.410Z,100956.00
2023-04-21T02:26:49.476Z,100955.13
2023-04-21T02:29:16.940Z,100955.09
2023-04-21T02:31:57.910Z,100961.09
2023-04-21T02:34:30.525Z,100955.03
2023-04-21T02:36:57.880Z,100961.91
2023-04-21T02:39:26.595Z,100962.75
2023-04-21T02:41:53.569Z,100964.50
2023-04-21T02:44:21.348Z,100959.34
2023-04-21T02:46:48.464Z,100954.16
2023-04-21T02:49:15.523Z,100958.41
2023-04-21T02:51:42.615Z,100959.34
2023-04-21T02:54:09.691Z,100969.66
2023-04-21T02:56:36.798Z,100950.69
2023-04-21T02:59:03.888Z,100961.03
2023-04-21T03:01:30.917Z,100955.84
2023-04-21T03:03:58.107Z,100961.88
2023-04-21T03:06:25.454Z,100961.00
2023-04-21T03:08:52.478Z,100952.28
2023-04-21T03:11:19.510Z,100954.00
2023-04-21T03:13:46.478Z,100961.69
2023-04-21T03:16:13.750Z,100954.78
2023-04-21T03:18:44.248Z,100959.06
2023-04-21T03:21:12.315Z,100941.81
2023-04-21T03:23:39.490Z,100953.06
2023-04-21T03:26:10.069Z,100959.06
2023-04-21T03:28:37.147Z,100953.06
2023-04-21T03:31:04.192Z,100955.66
2023-04-21T03:33:31.367Z,100948.69
2023-04-21T03:35:58.532Z,100953.84
2023-04-21T03:38:25.559Z,100957.22
2023-04-21T03:40:52.669Z,100953.78
2023-04-21T03:43:19.720Z,100952.91
2023-04-21T03:45:46.867Z,100949.44
2023-04-21T03:48:13.954Z,100955.47
2023-04-21T03:50:41.201Z,100957.16
2023-04-21T03:53:08.229Z,100958.00
2023-04-21T03:55:35.527Z,100951.97
2023-04-21T03:58:02.979Z,100948.50
2023-04-21T04:00:30.093Z,100950.13
2023-04-21T04:02:57.302Z,100953.63
2023-04-21T04:05:24.704Z,100950.13
2023-04-21T04:07:51.784Z,100957.06
2023-04-21T04:10:18.972Z,100952.78
2023-04-21T04:12:46.035Z,100950.22
2023-04-21T04:15:13.166Z,100957.09
2023-04-21T04:17:40.256Z,100944.19
2023-04-21T04:20:08.651Z,100943.25
2023-04-21T04:22:35.972Z,100938.13
2023-04-21T04:25:04.064Z,100949.38
2023-04-21T04:27:31.186Z,100950.22
2023-04-21T04:29:58.230Z,100949.41
2023-04-21T04:32:28.591Z,100949.44
2023-04-21T04:34:56.097Z,100946.00
2023-04-21T04:37:23.160Z,100957.28
2023-04-21T04:39:53.753Z,100948.69
2023-04-21T04:42:20.829Z,100950.47
2023-04-21T04:44:48.254Z,100941.00
2023-04-21T04:47:15.464Z,100955.69
2023-04-21T04:49:42.543Z,100951.44
2023-04-21T04:52:09.741Z,100953.22
2023-04-21T04:54:36.803Z,100944.63
2023-04-21T04:57:03.900Z,100949.00
2023-04-21T04:59:31.447Z,100945.59
2023-04-21T05:01:58.610Z,100957.69
2023-04-21T05:04:26.306Z,100946.53
2023-04-21T05:06:53.946Z,100946.56
2023-04-21T05:09:21.089Z,100940.59
2023-04-21T05:11:48.200Z,100947.53
2023-04-21T05:14:15.360Z,100943.22
2023-04-21T05:16:44.079Z,100949.31
2023-04-21T05:19:11.403Z,100945.03
2023-04-21T05:21:38.560Z,100947.66
2023-04-21T05:24:05.841Z,100951.16
2023-04-21T05:26:32.978Z,100957.22
2023-04-21T05:29:00.047Z,100952.97
2023-04-21T05:31:27.310Z,100943.50
2023-04-21T05:33:54.517Z,100949.59
2023-04-21T05:36:21.608Z,100953.06
2023-04-21T05:38:48.625Z,100953.09
2023-04-21T05:41:16.226Z,100959.13
2023-04-21T05:43:43.461Z,100948.78
2023-04-21T05:46:14.065Z,100947.94
2023-04-21T05:48:41.766Z,100951.41
2023-04-21T05:51:14.107Z,100955.72
2023-04-21T05:53:41.571Z,100955.81
2023-04-21T05:56:12.095Z,100948.03
2023-04-21T05:58:39.262Z,100946.34
2023-04-21T06:01:09.305Z,100947.22
2023-04-21T06:03:36.769Z,100951.53
2023-04-21T06:06:06.027Z,100949.81
2023-04-21T06:08:33.428Z,100942.91
2023-04-21T06:11:00.594Z,100948.97
2023-04-21T06:13:27.923Z,100949.84
2023-04-21T06:15:55.691Z,100940.31
2023-04-21T06:18:24.180Z,100929.09
2023-04-21T06:20:52.217Z,100946.28
2023-04-21T06:23:19.559Z,100934.22
2023-04-21T06:25:46.806Z,100935.91
2023-04-21T06:28:14.021Z,100939.31
2023-04-21T06:30:41.163Z,100930.66
2023-04-21T06:33:08.282Z,100939.19
2023-04-21T06:35:35.757Z,100933.94
2023-04-21T06:38:02.835Z,100935.56
2023-04-21T06:40:31.279Z,100933.72
2023-04-21T06:42:58.326Z,100942.25
2023-04-21T06:45:25.652Z,100933.50
2023-04-21T06:47:52.777Z,100935.25
2023-04-21T06:50:19.926Z,100943.84
2023-04-21T06:52:46.964Z,100938.59
2023-04-21T06:55:14.210Z,100936.78
2023-04-21T06:57:41.434Z,100936.72
2023-04-21T07:00:09.954Z,100930.56
2023-04-21T07:02:37.191Z,100933.94
2023-04-21T07:05:04.672Z,100932.06
2023-04-21T07:07:31.795Z,100931.09
2023-04-21T07:09:58.965Z,100926.59
2023-04-21T07:12:26.086Z,100930.66
2023-04-21T07:14:53.177Z,100926.91
2023-04-21T07:17:20.251Z,100927.41
2023-04-21T07:19:47.465Z,100934.19
2023-04-21T07:22:14.553Z,100924.47
2023-04-21T07:24:41.700Z,100933.13
2023-04-21T07:27:09.041Z,100919.25
2023-04-21T07:29:37.470Z,100931.28
2023-04-21T07:32:04.596Z,100929.34
2023-04-21T07:34:31.783Z,100927.44
2023-04-21T07:36:58.975Z,100916.84
2023-04-21T07:39:26.393Z,100922.72
2023-04-21T07:41:54.179Z,100924.88
2023-04-21T07:44:21.378Z,100915.94
2023-04-21T07:46:48.418Z,100919.09
2023-04-21T07:49:15.818Z,100917.94
2023-04-21T07:51:42.856Z,100916.81
2023-04-21T07:54:10.300Z,100918.47
2023-04-21T07:56:37.387Z,100918.47
2023-04-21T07:59:04.468Z,100910.34
2023-04-21T08:01:31.613Z,100910.63
2023-04-21T08:03:58.930Z,100912.97
2023-04-21T08:06:26.312Z,100908.31
2023-04-21T08:08:55.133Z,100916.84
2023-04-21T08:11:22.648Z,100911.59
2023-04-21T08:13:50.329Z,100907.25
2023-04-21T08:16:17.524Z,100906.25
2023-04-21T08:18:44.651Z,100900.00
2023-04-21T08:21:11.750Z,100904.72
2023-04-21T08:23:38.829Z,100900.00
2023-04-21T08:26:06.113Z,100905.78
2023-04-21T08:28:33.290Z,100913.47
2023-04-21T08:31:00.821Z,100902.25
2023-04-21T08:33:28.163Z,100897.78
2023-04-21T08:36:03.969Z,100900.38
2023-04-21T08:38:35.760Z,100894.09
2023-04-21T08:41:04.566Z,100906.19
2023-04-21T08:43:31.741Z,100900.16
2023-04-21T08:46:00.056Z,100889.59
2023-04-21T08:48:29.863Z,100892.13
2023-04-21T08:50:57.307Z,100902.50
2023-04-21T08:53:24.360Z,100886.91
2023-04-21T08:56:07.487Z,100891.75
2023-04-21T08:58:38.370Z,100887.34
2023-04-21T09:01:06.015Z,100884.53
2023-04-21T09:03:33.410Z,100877.97
2023-04-21T09:06:02.909Z,100876.53
2023-04-21T09:08:30.999Z,100879.69
2023-04-21T09:10:59.957Z,100881.28
2023-04-21T09:13:32.612Z,100874.13
2023-04-21T09:16:04.646Z,100886.53
2023-04-21T09:18:36.581Z,100868.91
2023-04-21T09:21:11.525Z,100868.91
2023-04-21T09:23:48.548Z,100872.53
2023-04-21T09:26:17.907Z,100879.69
2023-04-21T09:28:47.369Z,100875.44
2023-04-21T09:31:16.969Z,100877.94
2023-04-21T09:36:24.613Z,100870.09
2023-04-21T09:39:12.481Z,100871.56
2023-04-21T09:41:41.500Z,100874.41
2023-04-21T09:44:08.604Z,100857.53
2023-04-21T09:46:37.381Z,100874.06
2023-04-21T09:49:06.023Z,100858.13
2023-04-21T09:54:15.728Z,100857.66
2023-04-21T09:56:53.319Z,100856.91
2023-04-21T09:59:25.174Z,100868.16
2023-04-21T10:01:54.121Z,100858.47
2023-04-21T10:04:24.195Z,100851.06
2023-04-21T10:06:51.589Z,100843.69
2023-04-21T10:09:21.912Z,100840.72
2023-04-21T10:11:49.040Z,100845.69
2023-04-21T10:14:16.216Z,100841.19
2023-04-21T10:16:43.700Z,100846.22
2023-04-21T10:19:28.298Z,100853.06
2023-04-21T10:21:59.064Z,100844.41
2023-04-21T10:24:30.231Z,100841.88
2023-04-21T10:27:02.315Z,100835.50
2023-04-21T10:29:47.991Z,100837.13
2023-04-21T10:33:05.762Z,100840.75
2023-04-21T10:36:01.764Z,100840.75
2023-04-21T10:38:44.622Z,100835.38
2023-04-21T10:41:37.568Z,100837.78
2023-04-21T10:44:10.511Z,100828.88
2023-04-21T10:46:40.279Z,100830.31
2023-04-21T10:49:12.061Z,100824.25
2023-04-21T10:52:00.628Z,100818.94
2023-04-21T10:54:31.493Z,100824.09
2023-04-21T10:56:59.469Z,100817.13
2023-04-21T10:59:29.323Z,100815.66
2023-04-21T11:01:57.416Z,100827.84
2023-04-21T11:04:25.189Z,100814.16
2023-04-21T11:07:12.207Z,100814.06
2023-04-21T11:09:41.051Z,100801.97
2023-04-21T11:12:13.322Z,100799.16
2023-04-21T11:14:42.028Z,100805.94
2023-04-21T11:17:14.205Z,100799.66
2023-04-21T11:19:41.936Z,100797.00
2023-04-21T11:22:09.001Z,100790.88
2023-04-21T11:24:36.651Z,100792.72
2023-04-21T11:27:04.215Z,100789.91
2023-04-21T11:29:31.652Z,100783.78
2023-04-21T11:31:59.445Z,100786.41
2023-04-21T11:34:27.271Z,100766.34
2023-04-21T11:36:54.417Z,100771.25
2023-04-21T11:39:22.178Z,100772.84
2023-04-21T11:41:51.473Z,100755.75
2023-04-21T11:44:54.975Z,100769.91
2023-04-21T11:47:25.367Z,100762.72
2023-04-21T11:49:59.760Z,100767.00
2023-04-21T11:52:29.269Z,100762.72
2023-04-21T11:55:00.247Z,100768.88
2023-04-21T11:57:28.706Z,100759.19
2023-04-21T12:00:02.467Z,100762.59
2023-04-21T12:02:32.822Z,100768.84
2023-04-21T12:05:06.094Z,100762.91
2023-04-21T12:07:43.087Z,100752.53
2023-04-21T12:10:12.644Z,100749.88
2023-04-21T12:12:41.332Z,100739.41
2023-04-21T12:15:10.901Z,100733.06
2023-04-21T12:17:49.058Z,100745.13
2023-04-21T12:20:18.155Z,100735.69
2023-04-21T12:22:46.117Z,100741.50
2023-04-21T12:25:14.058Z,100740.69
2023-04-21T12:27:57.626Z,100743.31
2023-04-21T12:30:24.869Z,100732.94
2023-04-21T12:32:52.538Z,100732.03
2023-04-21T12:35:19.688Z,100730.31
2023-04-21T12:37:46.910Z,100716.31
2023-04-21T12:40:14.008Z,100718.00
2023-04-21T12:42:41.085Z,100714.44
2023-04-21T12:45:08.691Z,100711.19
2023-04-21T12:47:37.648Z,100704.44
2023-04-21T12:50:05.453Z,100708.34
2023-04-21T12:52:32.584Z,100693.41
2023-04-21T12:54:59.799Z,100685.53
2023-04-21T12:57:27.042Z,100699.31
2023-04-21T12:59:54.224Z,100688.72
2023-04-21T13:02:21.467Z,100680.59
2023-04-21T13:04:48.704Z,100683.22
2023-04-21T13:07:16.402Z,100684.94
2023-04-21T13:09:43.824Z,100682.97
2023-04-21T13:12:10.859Z,100680.34
2023-04-21T13:14:38.028Z,100669.06
2023-04-21T13:17:05.426Z,100676.28
2023-04-21T13:19:32.868Z,100672.84
2023-04-21T13:22:00.213Z,100675.47
2023-04-21T13:24:27.426Z,100674.91
2023-04-21T13:26:54.806Z,100678.69
2023-04-21T13:29:21.911Z,100662.34
2023-04-21T13:31:48.981Z,100659.66
2023-04-21T13:34:16.155Z,100648.59
2023-04-21T13:36:43.429Z,100662.06
2023-04-21T13:39:11.353Z,100658.88
2023-04-21T13:41:38.475Z,100658.31
2023-04-21T13:44:05.957Z,100645.47
2023-04-21T13:46:33.251Z,100649.09
2023-04-21T13:49:00.407Z,100644.91
2023-04-21T13:51:27.457Z,100645.88
2023-04-21T13:53:54.813Z,100635.50
2023-04-21T13:56:22.156Z,100631.22
2023-04-21T13:58:49.358Z,100630.25
2023-04-21T14:01:17.546Z,100625.13
2023-04-21T14:03:46.069Z,100630.50
2023-04-21T14:06:13.425Z,100635.97
2023-04-21T14:08:40.831Z,100627.19
2023-04-21T14:11:08.019Z,100628.19
2023-04-21T14:13:39.789Z,100618.88
2023-04-21T14:16:12.018Z,100620.69
2023-04-21T14:18:44.562Z,100612.91
2023-04-21T14:21:12.205Z,100620.06
2023-04-21T14:23:39.552Z,100612.38
2023-04-21T14:26:06.724Z,100603.69
2023-04-21T14:28:33.802Z,100605.44
2023-04-21T14:31:00.922Z,100595.09
2023-04-21T14:33:29.015Z,100590.84
2023-04-21T14:35:56.826Z,100598.69
2023-04-21T14:38:24.644Z,100600.50
2023-04-21T14:40:54.689Z,100596.22
2023-04-21T14:43:22.500Z,100589.22
2023-04-21T14:45:49.674Z,100588.72
2023-04-21T14:48:16.984Z,100579.19
2023-04-21T14:50:44.144Z,100580.13
2023-04-21T14:53:11.414Z,100573.28
2023-04-21T14:55:38.502Z,100583.63
2023-04-21T14:58:05.693Z,100568.78
2023-04-21T15:00:34.881Z,100566.34
2023-04-21T15:03:02.779Z,100568.25
2023-04-21T15:05:30.360Z,100559.72
2023-04-21T15:07:57.533Z,100565.91
2023-04-21T15:10:24.742Z,100562.44
2023-04-21T15:12:51.876Z,100557.31
2023-04-21T15:15:19.013Z,100555.53
2023-04-21T15:17:46.146Z,100553.78
2023-04-21T15:20:13.328Z,100557.44
2023-04-21T15:22:41.328Z,100549.63
2023-04-21T15:25:08.817Z,100544.50
2023-04-21T15:27:36.999Z,100547.13
2023-04-21T15:30:04.756Z,100544.47
2023-04-21T15:32:31.885Z,100547.19
2023-04-21T15:34:59.113Z,100552.34
2023-04-21T15:37:26.256Z,100555.81
2023-04-21T15:39:53.529Z,100546.22
2023-04-21T15:42:20.810Z,100540.22
2023-04-21T15:44:48.154Z,100538.53
2023-04-21T15:47:18.121Z,100540.47
2023-04-21T15:49:45.557Z,100536.06
2023-04-21T15:52:12.853Z,100531.16
2023-04-21T15:54:41.059Z,100525.91
2023-04-21T15:57:08.280Z,100528.75
2023-04-21T15:59:35.450Z,100534.88
2023-04-21T16:02:03.246Z,100520.97
2023-04-21T16:04:30.945Z,100528.06
2023-04-21T16:06:58.076Z,100522.03
2023-04-21T16:09:25.285Z,100524.72
2023-04-21T16:11:52.467Z,100517.94
2023-04-21T16:14:19.671Z,100519.69
2023-04-21T16:16:46.948Z,100515.38
2023-04-21T16:19:14.226Z,100521.53
2023-04-21T16:21:42.687Z,100513.72
2023-04-21T16:24:10.112Z,100517.25
2023-04-21T16:26:37.324Z,100512.97
2023-04-21T16:29:04.528Z,100514.78
2023-04-21T16:31:31.850Z,100511.34
2023-04-21T16:34:00.281Z,100504.41
2023-04-21T16:36:32.569Z,100505.41
2023-04-21T16:38:59.946Z,100491.75
2023-04-21T16:41:27.088Z,100497.88
2023-04-21T16:43:54.170Z,100501.41
2023-04-21T16:46:21.412Z,100509.25
2023-04-21T16:48:48.615Z,100504.13
2023-04-21T16:51:15.813Z,100507.69
2023-04-21T16:53:42.877Z,100504.31
2023-04-21T16:56:10.328Z,100505.31
2023-04-21T16:58:37.917Z,100503.69
2023-04-21T17:01:07.726Z,100502.09
2023-04-21T17:03:35.261Z,100509.22
2023-04-21T17:06:05.067Z,100506.72
2023-04-21T17:08:32.241Z,100507.75
2023-04-21T17:11:00.188Z,100492.47
2023-04-21T17:13:27.391Z,100502.09
2023-04-21T17:15:54.686Z,100508.41
2023-04-21T17:18:21.752Z,100501.75
2023-04-21T17:20:48.798Z,100508.78
2023-04-21T17:23:15.918Z,100503.72
2023-04-21T17:25:43.203Z,100503.91
2023-04-21T17:28:10.309Z,100504.09
2023-04-21T17:30:37.376Z,100495.53
2023-04-21T17:33:16.370Z,100495.63
2023-04-21T17:35:59.845Z,100498.53
2023-04-21T17:38:29.727Z,100499.56
2023-04-21T17:40:56.856Z,100503.16
2023-04-21T17:43:24.423Z,100491.19
2023-04-21T17:45:52.507Z,100486.19
2023-04-21T17:48:21.212Z,100494.94
2023-04-21T17:50:48.242Z,100502.91
2023-04-21T17:53:15.706Z,100505.66
2023-04-21T17:55:42.859Z,100504.03
2023-04-21T17:58:12.309Z,100497.25
2023-04-21T18:00:39.902Z,100500.84
2023-04-21T18:03:07.142Z,100501.88
2023-04-21T18:05:34.509Z,100501.13
2023-04-21T18:08:02.368Z,100505.59
2023-04-21T18:10:30.077Z,100507.47
2023-04-21T18:12:57.721Z,100512.81
2023-04-21T18:15:25.031Z,100519.03
2023-04-21T18:17:53.382Z,100512.34
2023-04-21T18:20:20.763Z,100523.75
2023-04-21T18:22:49.088Z,100524.69
2023-04-21T18:25:22.083Z,100519.63
2023-04-21T18:27:54.533Z,100522.34
2023-04-21T18:30:21.670Z,100530.31
2023-04-21T18:32:48.819Z,100532.16
2023-04-21T18:35:15.922Z,100531.44
2023-04-21T18:37:43.439Z,100532.50
2023-04-21T18:40:10.919Z,100535.94
2023-04-21T18:42:39.396Z,100535.22
2023-04-21T18:45:07.349Z,100527.56
2023-04-21T18:47:35.071Z,100539.75
2023-04-21T18:50:02.166Z,100538.13
2023-04-21T18:52:29.211Z,100536.53
2023-04-21T18:54:56.468Z,100537.50
2023-04-21T18:57:23.585Z,100540.19
2023-04-21T18:59:50.598Z,100536.81
2023-04-21T19:02:18.100Z,100541.31
2023-04-21T19:04:45.790Z,100541.34
2023-04-21T19:07:15.769Z,100540.59
2023-04-21T19:09:44.428Z,100542.41
2023-04-21T19:12:11.710Z,100532.16
2023-04-21T19:14:46.503Z,100540.91
2023-04-21T19:17:14.688Z,100547.94
2023-04-21T19:19:42.525Z,100546.31
2023-04-21T19:22:09.681Z,100540.38
2023-04-21T19:24:36.913Z,100543.94
2023-04-21T19:27:06.252Z,100534.56
2023-04-21T19:29:33.411Z,100527.75
2023-04-21T19:32:00.610Z,100532.94
2023-04-21T19:34:27.822Z,100533.06
2023-04-21T19:36:54.918Z,100537.44
2023-04-21T19:39:22.055Z,100528.00
2023-04-21T19:41:49.181Z,100536.69
2023-04-21T19:44:16.392Z,100531.59
2023-04-21T19:46:43.804Z,100535.13
2023-04-21T19:49:14.210Z,100533.53
2023-04-21T19:51:41.593Z,100537.03
2023-04-21T19:54:11.926Z,100529.41
2023-04-21T19:56:40.780Z,100533.84
2023-04-21T19:59:08.279Z,100532.97
2023-04-21T20:01:35.639Z,100532.19
2023-04-21T20:04:03.941Z,100538.28
2023-04-21T20:06:32.181Z,100537.50
2023-04-21T20:08:59.458Z,100535.88
2023-04-21T20:11:28.927Z,100537.63
2023-04-21T20:13:56.274Z,100533.31
2023-04-21T20:16:24.052Z,100530.84
2023-04-21T20:18:51.235Z,100530.94
2023-04-21T20:21:18.330Z,100533.53
2023-04-21T20:23:45.398Z,100531.00
2023-04-21T20:26:12.706Z,100529.34
2023-04-21T20:28:39.827Z,100536.25
2023-04-21T20:31:07.286Z,100536.31
2023-04-21T20:33:34.577Z,100533.75
2023-04-21T20:36:07.404Z,100538.13
2023-04-21T20:38:35.571Z,100534.72
2023-04-21T20:41:03.473Z,100541.66
2023-04-21T20:43:33.388Z,100535.66
2023-04-21T20:46:04.478Z,100529.66
2023-04-21T20:48:31.577Z,100540.97
2023-04-21T20:50:58.628Z,100534.91
2023-04-21T20:53:26.336Z,100539.25
2023-04-21T20:55:53.504Z,100536.69
2023-04-21T20:58:20.631Z,100545.38
2023-04-21T21:00:47.817Z,100541.06
2023-04-21T21:03:15.146Z,100542.00
2023-04-21T21:05:42.533Z,100543.75
2023-04-21T21:08:10.143Z,100545.53
2023-04-21T21:10:37.290Z,100544.69
2023-04-21T21:13:04.354Z,100545.59
2023-04-21T21:15:31.500Z,100540.38
2023-04-21T21:17:58.894Z,100537.81
2023-04-21T21:20:26.410Z,100538.72
2023-04-21T21:22:53.542Z,100535.25
2023-04-21T21:25:20.798Z,100535.28
2023-04-21T21:27:48.025Z,100535.31
2023-04-21T21:30:15.315Z,100537.09
2023-04-21T21:32:42.404Z,100534.53
2023-04-21T21:35:10.476Z,100543.19
2023-04-21T21:37:38.236Z,100538.88
2023-04-21T21:40:06.435Z,100539.78
2023-04-21T21:42:33.495Z,100538.09
2023-04-21T21:45:01.124Z,100541.53
2023-04-21T21:47:28.492Z,100532.09
2023-04-21T21:49:57.938Z,100537.25
2023-04-21T21:52:25.310Z,100539.88
2023-04-21T21:54:52.865Z,100535.59
2023-04-21T21:57:20.011Z,100540.75
2023-04-21T21:59:48.556Z,100542.50
2023-04-21T22:02:16.086Z,100543.38
2023-04-21T22:04:44.008Z,100542.53
2023-04-21T22:07:11.252Z,100541.66
2023-04-21T22:09:40.201Z,100542.53
2023-04-21T22:12:07.665Z,100545.97
2023-04-21T22:14:35.370Z,100540.84
2023-04-21T22:17:03.046Z,100539.19
2023-04-21T22:19:31.292Z,100546.09
2023-04-21T22:21:58.482Z,100540.94
2023-04-21T22:24:25.851Z,100542.63
2023-04-21T22:26:52.957Z,100538.34
2023-04-21T22:29:20.044Z,100527.16
2023-04-21T22:31:47.805Z,100535.69
2023-04-21T22:34:19.850Z,100538.28
2023-04-21T22:36:46.937Z,100539.19
2023-04-21T22:39:14.008Z,100528.81
2023-04-21T22:41:41.318Z,100534.88
2023-04-21T22:44:08.823Z,100532.31
2023-04-21T22:46:36.623Z,100530.63
2023-04-21T22:49:04.086Z,100540.97
2023-04-21T22:51:32.757Z,100534.97
2023-04-21T22:54:00.650Z,100538.41
2023-04-21T22:56:28.704Z,100541.84
2023-04-21T22:58:55.924Z,100537.59
2023-04-21T23:01:23.312Z,100518.69
2023-04-21T23:03:51.020Z,100529.00
2023-04-21T23:06:18.260Z,100535.94
2023-04-21T23:08:45.399Z,100534.25
2023-04-21T23:11:12.912Z,100538.56
2023-04-21T23:13:40.189Z,100536.84
2023-04-21T23:16:07.316Z,100539.41
2023-04-21T23:18:34.383Z,100531.69
2023-04-21T23:21:01.688Z,100536.88
2023-04-21T23:23:28.786Z,100536.00
2023-04-21T23:25:56.078Z,100533.44
2023-04-21T23:28:24.432Z,100533.44
2023-04-21T23:30:51.567Z,100538.63
2023-04-21T23:33:18.803Z,100534.31
2023-04-21T23:35:45.930Z,100533.47
2023-04-21T23:38:12.998Z,100527.47
2023-04-21T23:40:40.131Z,100541.22
2023-04-21T23:43:07.808Z,100534.34
2023-04-21T23:45:35.106Z,100525.75
2023-04-21T23:48:02.327Z,100530.91
2023-04-21T23:50:29.520Z,100524.03
2023-04-21T23:52:56.673Z,100528.34
2023-04-21T23:55:23.782Z,100531.81
2023-04-21T23:57:50.805Z,100530.06
